createdAt,value
2018-11-11T00:00:56.777Z,7.70
2018-11-11T00:03:25.221Z,8.13
2018-11-11T00:05:53.707Z,6.87
2018-11-11T00:08:22.312Z,8.77
2018-11-11T00:10:50.988Z,7.07
2018-11-11T00:13:19.450Z,6.60
2018-11-11T00:15:47.952Z,6.90
2018-11-11T00:18:16.396Z,8.10
2018-11-11T00:20:44.840Z,8.23
2018-11-11T00:23:13.295Z,6.30
2018-11-11T00:25:41.735Z,7.03
2018-11-11T00:28:10.148Z,7.93
2018-11-11T00:30:38.633Z,7.13
2018-11-11T00:33:07.067Z,6.73
2018-11-11T00:35:35.541Z,7.40
2018-11-11T00:38:03.993Z,6.77
2018-11-11T00:40:32.417Z,5.20
2018-11-11T00:43:00.849Z,6.20
2018-11-11T00:45:29.514Z,6.20
2018-11-11T00:47:57.962Z,6.20
2018-11-11T00:50:26.417Z,5.40
2018-11-11T00:52:54.876Z,6.57
2018-11-11T00:55:23.349Z,6.50
2018-11-11T00:57:51.802Z,6.37
2018-11-11T01:00:20.278Z,5.50
2018-11-11T01:02:48.753Z,6.90
2018-11-11T01:05:17.210Z,4.73
2018-11-11T01:07:45.672Z,4.37
2018-11-11T01:10:15.570Z,8.03
2018-11-11T01:12:44.475Z,5.80
2018-11-11T01:15:14.193Z,5.80
2018-11-11T01:17:42.766Z,6.37
2018-11-11T01:20:12.684Z,4.97
2018-11-11T01:22:41.146Z,5.07
2018-11-11T01:25:11.498Z,6.83
2018-11-11T01:27:40.083Z,5.50
2018-11-11T01:30:08.979Z,7.30
2018-11-11T01:32:37.878Z,5.23
2018-11-11T01:35:08.937Z,4.97
2018-11-11T01:37:37.525Z,6.57
2018-11-11T01:40:06.812Z,5.80
2018-11-11T01:42:35.401Z,5.73
2018-11-11T01:45:03.878Z,4.73
2018-11-11T01:47:32.513Z,5.17
2018-11-11T01:50:00.938Z,5.17
2018-11-11T01:52:29.381Z,4.60
2018-11-11T01:54:57.828Z,5.97
2018-11-11T01:57:26.280Z,5.07
2018-11-11T01:59:54.729Z,4.83
2018-11-11T02:02:23.153Z,5.17
2018-11-11T02:04:51.589Z,5.60
2018-11-11T02:07:20.046Z,5.13
2018-11-11T02:09:48.560Z,5.47
2018-11-11T02:12:16.969Z,5.53
2018-11-11T02:14:45.449Z,4.97
2018-11-11T02:17:13.898Z,4.60
2018-11-11T02:19:42.324Z,5.33
2018-11-11T02:22:10.793Z,3.27
2018-11-11T02:24:39.245Z,4.40
2018-11-11T02:27:07.870Z,4.27
2018-11-11T02:29:36.338Z,4.53
2018-11-11T02:32:05.029Z,5.10
2018-11-11T02:34:33.443Z,4.83
2018-11-11T02:37:01.888Z,5.63
2018-11-11T02:39:30.338Z,4.83
2018-11-11T02:41:59.157Z,3.63
2018-11-11T02:44:27.592Z,3.80
2018-11-11T02:46:56.028Z,3.60
2018-11-11T02:49:27.662Z,4.40
2018-11-11T02:51:56.158Z,5.37
2018-11-11T02:54:24.584Z,3.77
2018-11-11T02:56:53.045Z,4.37
2018-11-11T02:59:21.503Z,4.20
2018-11-11T03:01:49.939Z,3.57
2018-11-11T03:04:18.428Z,3.40
2018-11-11T03:06:46.907Z,4.10
2018-11-11T03:09:15.544Z,5.00
2018-11-11T03:11:43.956Z,4.30
2018-11-11T03:14:12.413Z,4.13
2018-11-11T03:16:40.841Z,3.03
2018-11-11T03:19:09.288Z,4.43
2018-11-11T03:21:37.770Z,3.10
2018-11-11T03:24:06.636Z,3.67
2018-11-11T03:26:35.296Z,3.87
2018-11-11T03:29:03.900Z,4.17
2018-11-11T03:31:32.324Z,4.23
2018-11-11T03:34:00.775Z,3.87
2018-11-11T03:36:29.231Z,3.73
2018-11-11T03:38:57.670Z,3.77
2018-11-11T03:41:26.099Z,4.30
2018-11-11T03:43:54.552Z,4.77
2018-11-11T03:46:23.272Z,3.67
2018-11-11T03:48:51.725Z,3.17
2018-11-11T03:51:20.278Z,3.43
2018-11-11T03:53:48.724Z,3.17
2018-11-11T03:56:17.191Z,3.33
2018-11-11T03:58:45.776Z,4.50
2018-11-11T04:01:14.153Z,4.23
2018-11-11T04:03:42.585Z,3.67
2018-11-11T04:06:11.064Z,4.00
2018-11-11T04:08:39.510Z,3.50
2018-11-11T04:11:07.978Z,3.40
2018-11-11T04:13:36.637Z,3.47
2018-11-11T04:16:05.356Z,3.77
2018-11-11T04:18:33.809Z,4.17
2018-11-11T04:21:02.270Z,3.57
2018-11-11T04:23:30.701Z,4.27
2018-11-11T04:25:59.117Z,4.17
2018-11-11T04:28:30.761Z,4.17
2018-11-11T04:30:59.194Z,3.10
2018-11-11T04:33:27.648Z,3.73
2018-11-11T04:35:56.089Z,3.27
2018-11-11T04:38:24.539Z,3.67
2018-11-11T04:40:52.973Z,3.40
2018-11-11T04:43:21.425Z,3.97
2018-11-11T04:45:49.860Z,3.23
2018-11-11T04:48:18.362Z,4.03
2018-11-11T04:50:46.861Z,2.77
2018-11-11T04:53:15.493Z,3.43
2018-11-11T04:55:43.940Z,2.73
2018-11-11T04:58:12.399Z,3.90
2018-11-11T05:00:40.813Z,3.27
2018-11-11T05:03:09.285Z,3.57
2018-11-11T05:05:37.745Z,4.03
2018-11-11T05:08:06.348Z,2.87
2018-11-11T05:10:34.799Z,3.60
2018-11-11T05:13:03.260Z,3.30
2018-11-11T05:15:31.731Z,4.17
2018-11-11T05:18:00.177Z,2.20
2018-11-11T05:20:28.618Z,2.90
2018-11-11T05:22:57.041Z,2.90
2018-11-11T05:25:25.785Z,3.63
2018-11-11T05:27:54.241Z,4.00
2018-11-11T05:30:22.698Z,3.50
2018-11-11T05:32:51.169Z,2.47
2018-11-11T05:35:19.649Z,4.47
2018-11-11T05:37:48.076Z,2.00
2018-11-11T05:40:16.516Z,3.03
2018-11-11T05:42:44.996Z,3.03
2018-11-11T05:45:14.665Z,2.70
2018-11-11T05:47:43.580Z,2.33
2018-11-11T05:50:14.441Z,2.83
2018-11-11T05:52:43.808Z,2.70
2018-11-11T05:55:12.407Z,2.83
2018-11-11T05:57:41.118Z,2.53
2018-11-11T06:00:11.949Z,3.07
2018-11-11T06:02:40.435Z,3.93
2018-11-11T06:05:10.481Z,3.47
2018-11-11T06:07:38.972Z,2.77
2018-11-11T06:10:08.837Z,3.27
2018-11-11T06:12:37.293Z,2.30
2018-11-11T06:15:07.349Z,2.63
2018-11-11T06:17:36.078Z,2.60
2018-11-11T06:20:05.647Z,3.87
2018-11-11T06:22:34.101Z,3.50
2018-11-11T06:25:02.545Z,2.33
2018-11-11T06:27:31.073Z,2.70
2018-11-11T06:29:59.505Z,2.53
2018-11-11T06:32:27.928Z,3.57
2018-11-11T06:34:56.457Z,2.37
2018-11-11T06:37:24.895Z,3.30
2018-11-11T06:39:53.336Z,3.50
2018-11-11T06:42:21.811Z,4.33
2018-11-11T06:44:50.250Z,3.73
2018-11-11T06:47:18.704Z,4.67
2018-11-11T06:49:47.284Z,3.50
2018-11-11T06:52:19.083Z,3.67
2018-11-11T06:54:47.536Z,4.13
2018-11-11T06:57:19.436Z,4.37
2018-11-11T06:59:47.986Z,3.57
2018-11-11T07:02:16.437Z,4.40
2018-11-11T07:04:44.953Z,2.47
2018-11-11T07:07:13.487Z,3.00
2018-11-11T07:09:42.002Z,4.57
2018-11-11T07:12:10.460Z,4.57
2018-11-11T07:14:38.933Z,5.57
2018-11-11T07:17:07.465Z,3.57
2018-11-11T07:19:36.037Z,6.40
2018-11-11T07:22:04.853Z,3.07
2018-11-11T07:24:33.413Z,3.07
2018-11-11T07:27:01.943Z,1.57
2018-11-11T07:29:30.406Z,3.23
2018-11-11T07:31:58.847Z,4.80
2018-11-11T07:34:27.325Z,3.80
2018-11-11T07:36:55.764Z,2.20
2018-11-11T07:39:24.297Z,2.60
2018-11-11T07:41:52.760Z,3.37
2018-11-11T07:44:21.209Z,4.73
2018-11-11T07:46:49.654Z,3.50
2018-11-11T07:49:18.386Z,3.83
2018-11-11T07:51:49.969Z,4.03
2018-11-11T07:54:18.342Z,2.63
2018-11-11T07:56:46.772Z,2.40
2018-11-11T07:59:15.510Z,5.57
2018-11-11T08:01:44.012Z,2.30
2018-11-11T08:04:12.457Z,3.37
2018-11-11T08:06:40.910Z,3.63
2018-11-11T08:09:09.360Z,3.07
2018-11-11T08:12:09.095Z,5.97
2018-11-11T08:14:37.504Z,5.10
2018-11-11T08:17:05.877Z,2.57
2018-11-11T08:19:34.322Z,4.63
2018-11-11T08:22:02.724Z,3.43
2018-11-11T08:24:31.107Z,5.13
2018-11-11T08:26:59.557Z,4.93
2018-11-11T08:29:27.997Z,3.63
2018-11-11T08:31:56.428Z,3.43
2018-11-11T08:34:24.886Z,3.53
2018-11-11T08:36:53.324Z,5.33
2018-11-11T08:39:21.756Z,9.90
2018-11-11T08:41:50.222Z,5.17
2018-11-11T08:44:18.657Z,3.10
2018-11-11T08:46:47.098Z,6.07
2018-11-11T08:49:15.568Z,5.13
2018-11-11T08:51:44.028Z,4.03
2018-11-11T08:54:12.472Z,3.93
2018-11-11T08:56:40.961Z,4.70
2018-11-11T08:59:09.414Z,2.43
2018-11-11T09:01:41.381Z,3.23
2018-11-11T09:04:09.884Z,5.03
2018-11-11T09:06:38.341Z,4.97
2018-11-11T09:09:07.621Z,3.50
2018-11-11T09:11:36.793Z,4.20
2018-11-11T09:14:05.617Z,5.43
2018-11-11T09:16:34.056Z,3.97
2018-11-11T09:19:02.588Z,4.10
2018-11-11T09:21:31.092Z,3.13
2018-11-11T09:47:41.061Z,5.97
2018-11-11T09:50:11.531Z,3.50
2018-11-11T09:52:40.259Z,3.80
2018-11-11T09:55:10.497Z,3.90
2018-11-11T09:57:40.168Z,5.40
2018-11-11T10:00:14.633Z,7.35
2018-11-11T10:02:44.749Z,4.67
2018-11-11T10:05:51.169Z,5.90
2018-11-11T10:08:38.115Z,7.80
2018-11-11T10:11:17.647Z,24.00
2018-11-11T10:14:01.180Z,31.90
2018-11-11T10:16:38.993Z,19.97
2018-11-11T10:19:11.758Z,20.07
2018-11-11T10:21:51.819Z,18.70
2018-11-11T10:24:28.424Z,18.53
2018-11-11T10:27:06.258Z,19.60
2018-11-11T10:31:42.881Z,14.20
2018-11-11T10:34:17.629Z,16.63
2018-11-11T10:37:16.687Z,13.00
2018-11-11T10:39:49.860Z,12.43
2018-11-11T10:42:37.741Z,14.17
2018-11-11T10:45:25.263Z,10.00
2018-11-11T10:47:57.932Z,11.30
2018-11-11T10:50:44.840Z,10.67
2018-11-11T10:53:13.809Z,10.00
2018-11-11T10:55:42.604Z,9.77
2018-11-11T10:58:11.113Z,11.10
2018-11-11T11:00:44.917Z,10.90
2018-11-11T11:03:18.668Z,11.90
2018-11-11T11:05:47.617Z,9.40
2018-11-11T11:08:16.133Z,11.70
2018-11-11T11:10:44.659Z,9.00
2018-11-11T11:13:13.269Z,8.47
2018-11-11T11:15:41.725Z,8.10
2018-11-11T11:18:10.414Z,6.87
2018-11-11T11:20:39.038Z,9.63
2018-11-11T11:23:08.107Z,6.50
2018-11-11T11:25:36.657Z,7.47
2018-11-11T11:28:05.170Z,6.20
2018-11-11T11:30:33.602Z,8.13
2018-11-11T11:33:02.078Z,11.33
2018-11-11T11:35:30.583Z,8.60
2018-11-11T11:37:59.686Z,5.90
2018-11-11T11:40:28.986Z,4.90
2018-11-11T11:42:57.544Z,7.43
2018-11-11T11:45:26.162Z,5.63
2018-11-11T11:47:54.860Z,7.77
2018-11-11T11:50:23.746Z,7.50
2018-11-11T11:52:52.265Z,9.60
2018-11-11T11:55:21.140Z,9.60
2018-11-11T11:58:01.369Z,11.00
2018-11-11T12:00:30.364Z,9.80
2018-11-11T12:02:58.992Z,9.57
2018-11-11T12:05:27.603Z,6.20
2018-11-11T12:07:57.134Z,8.30
2018-11-11T12:10:25.697Z,10.80
2018-11-11T12:12:54.165Z,15.03
2018-11-11T12:15:23.572Z,14.00
2018-11-11T12:17:52.093Z,13.40
2018-11-11T12:20:20.768Z,11.30
2018-11-11T12:22:50.556Z,9.80
2018-11-11T12:25:19.409Z,8.50
2018-11-11T12:27:50.228Z,7.90
2018-11-11T12:30:19.576Z,7.50
2018-11-11T12:32:48.405Z,9.73
2018-11-11T12:35:18.033Z,7.27
2018-11-11T12:37:46.679Z,7.90
2018-11-11T12:40:16.591Z,10.10
2018-11-11T12:42:45.441Z,5.63
2018-11-11T12:45:14.419Z,5.77
2018-11-11T12:47:42.928Z,5.87
2018-11-11T12:50:12.849Z,6.83
2018-11-11T12:52:41.302Z,6.13
2018-11-11T12:55:09.814Z,4.67
2018-11-11T12:57:39.029Z,6.27
2018-11-11T13:00:11.325Z,4.50
2018-11-11T13:02:39.991Z,5.17
2018-11-11T13:05:09.537Z,5.03
2018-11-11T13:07:38.080Z,5.13
2018-11-11T13:10:08.920Z,6.67
2018-11-11T13:12:37.981Z,4.90
2018-11-11T13:15:07.813Z,4.40
2018-11-11T13:17:38.709Z,5.33
2018-11-11T13:20:10.481Z,4.27
2018-11-11T13:22:39.805Z,6.20
2018-11-11T13:25:09.564Z,53.63
2018-11-11T13:27:38.614Z,124.80
2018-11-11T13:30:09.318Z,83.27
2018-11-11T13:32:39.262Z,58.43
2018-11-11T13:35:09.577Z,40.70
2018-11-11T13:37:39.182Z,44.23
2018-11-11T13:40:10.046Z,41.80
2018-11-11T13:42:38.703Z,40.93
2018-11-11T13:45:10.369Z,40.47
2018-11-11T13:47:40.033Z,36.77
2018-11-11T13:50:13.193Z,40.53
2018-11-11T13:52:41.858Z,36.00
2018-11-11T13:55:11.482Z,36.47
2018-11-11T13:57:40.344Z,34.60
2018-11-11T14:00:15.868Z,33.43
2018-11-11T14:02:44.361Z,32.93
2018-11-11T14:05:13.200Z,29.27
2018-11-11T14:07:41.821Z,29.13
2018-11-11T14:10:11.905Z,28.70
2018-11-11T14:12:41.105Z,30.43
2018-11-11T14:15:15.207Z,26.50
2018-11-11T14:17:46.323Z,27.70
2018-11-11T14:20:17.132Z,29.00
2018-11-11T14:22:47.190Z,28.63
2018-11-11T14:25:20.120Z,28.60
2018-11-11T14:27:48.852Z,31.60
2018-11-11T14:30:19.865Z,27.93
2018-11-11T14:32:50.179Z,26.70
2018-11-11T14:35:22.802Z,22.33
2018-11-11T14:37:51.946Z,24.77
2018-11-11T14:40:22.217Z,22.77
2018-11-11T14:42:50.992Z,24.92
2018-11-11T14:45:21.327Z,26.70
2018-11-11T14:47:53.199Z,25.25
2018-11-11T14:50:22.767Z,26.97
2018-11-11T14:52:52.711Z,23.47
2018-11-11T14:55:26.354Z,20.03
2018-11-11T14:57:55.607Z,21.20
2018-11-11T15:00:25.947Z,21.10
2018-11-11T15:03:04.367Z,19.30
2018-11-11T15:05:34.796Z,21.23
2018-11-11T15:08:04.148Z,19.10
2018-11-11T15:10:33.114Z,18.90
2018-11-11T15:13:01.868Z,18.40
2018-11-11T15:15:31.047Z,16.27
2018-11-11T15:18:02.739Z,20.72
2018-11-11T15:20:32.821Z,16.90
2018-11-11T15:23:01.551Z,16.77
2018-11-11T15:25:31.033Z,15.53
2018-11-11T15:28:00.056Z,15.63
2018-11-11T15:30:30.984Z,16.43
2018-11-11T15:33:01.481Z,13.87
2018-11-11T15:35:30.674Z,16.63
2018-11-11T15:38:00.266Z,20.03
2018-11-11T15:40:32.000Z,14.33
2018-11-11T15:43:01.070Z,14.33
2018-11-11T15:45:31.186Z,17.07
2018-11-11T15:48:00.007Z,16.57
2018-11-11T15:50:30.647Z,16.03
2018-11-11T15:53:03.232Z,15.87
2018-11-11T15:55:33.742Z,14.57
2018-11-11T15:58:02.516Z,12.27
2018-11-11T16:00:33.301Z,15.47
2018-11-11T16:03:03.251Z,12.87
2018-11-11T16:05:31.739Z,12.13
2018-11-11T16:08:01.664Z,12.07
2018-11-11T16:10:31.517Z,11.93
2018-11-11T16:13:03.766Z,15.73
2018-11-11T16:15:35.531Z,17.90
2018-11-11T16:18:07.132Z,15.80
2018-11-11T16:20:36.005Z,16.43
2018-11-11T16:23:06.313Z,15.03
2018-11-11T16:25:35.380Z,16.40
2018-11-11T16:28:04.464Z,15.40
2018-11-11T16:30:34.526Z,17.30
2018-11-11T16:33:03.929Z,15.57
2018-11-11T16:35:33.123Z,17.90
2018-11-11T16:38:03.584Z,14.30
2018-11-11T16:40:36.639Z,14.57
2018-11-11T16:43:07.324Z,13.63
2018-11-11T16:45:37.778Z,16.53
2018-11-11T16:48:07.993Z,11.73
2018-11-11T16:50:38.190Z,12.30
2018-11-11T16:53:08.791Z,13.90
2018-11-11T16:55:38.286Z,12.27
2018-11-11T16:58:07.300Z,12.83
2018-11-11T17:00:37.409Z,13.27
2018-11-11T17:03:07.392Z,14.10
2018-11-11T17:05:38.976Z,13.33
2018-11-11T17:08:08.543Z,12.67
2018-11-11T17:10:47.550Z,13.07
2018-11-11T17:13:17.114Z,11.80
2018-11-11T17:15:46.891Z,10.43
2018-11-11T17:18:15.686Z,11.67
2018-11-11T17:20:44.682Z,11.57
2018-11-11T17:23:15.856Z,10.87
2018-11-11T17:25:45.884Z,12.17
2018-11-11T17:28:14.787Z,11.33
2018-11-11T17:30:43.541Z,11.70
2018-11-11T17:33:13.436Z,10.97
2018-11-11T17:35:44.104Z,12.00
2018-11-11T17:38:12.774Z,12.27
2018-11-11T17:40:44.265Z,9.70
2018-11-11T17:43:13.718Z,10.10
2018-11-11T17:45:42.842Z,9.80
2018-11-11T17:48:12.017Z,10.80
2018-11-11T17:50:41.175Z,10.37
2018-11-11T17:53:10.162Z,12.57
2018-11-11T17:55:39.563Z,10.00
2018-11-11T17:58:12.896Z,9.03
2018-11-11T18:00:41.593Z,10.80
2018-11-11T18:03:10.267Z,9.73
2018-11-11T18:05:40.352Z,12.27
2018-11-11T18:08:10.789Z,9.73
2018-11-11T18:10:39.766Z,8.50
2018-11-11T18:13:09.094Z,9.20
2018-11-11T18:15:39.477Z,10.57
2018-11-11T18:18:09.249Z,11.67
2018-11-11T18:20:40.572Z,10.37
2018-11-11T18:23:15.936Z,10.67
2018-11-11T18:25:44.947Z,9.20
2018-11-11T18:28:20.937Z,9.83
2018-11-11T18:30:49.671Z,14.30
2018-11-11T18:33:19.992Z,8.47
2018-11-11T18:35:48.704Z,8.27
2018-11-11T18:38:17.677Z,10.43
2018-11-11T18:40:48.859Z,8.77
2018-11-11T18:43:18.054Z,8.83
2018-11-11T18:45:46.617Z,8.20
2018-11-11T18:48:17.730Z,9.28
2018-11-11T18:50:47.717Z,7.47
2018-11-11T18:53:17.485Z,6.03
2018-11-11T18:55:47.854Z,6.70
2018-11-11T18:58:16.542Z,9.03
2018-11-11T19:00:45.184Z,5.60
2018-11-11T19:03:13.809Z,6.80
2018-11-11T19:05:42.905Z,6.67
2018-11-11T19:08:12.117Z,7.77
2018-11-11T19:10:40.870Z,7.87
2018-11-11T19:13:10.316Z,7.33
2018-11-11T19:15:39.190Z,9.47
2018-11-11T19:18:09.278Z,6.33
2018-11-11T19:20:39.081Z,7.80
2018-11-11T19:23:08.825Z,6.93
2018-11-11T19:25:37.426Z,6.60
2018-11-11T19:28:06.184Z,6.03
2018-11-11T19:30:35.271Z,8.27
2018-11-11T19:33:03.853Z,7.37
2018-11-11T19:35:33.954Z,7.03
2018-11-11T19:38:02.544Z,5.70
2018-11-11T19:40:31.807Z,8.73
2018-11-11T19:43:01.592Z,5.70
2018-11-11T19:45:30.961Z,5.73
2018-11-11T19:48:00.883Z,6.93
2018-11-11T19:50:30.826Z,7.70
2018-11-11T19:53:00.847Z,6.00
2018-11-11T19:55:30.561Z,6.43
2018-11-11T19:58:01.857Z,5.57
2018-11-11T20:00:31.559Z,4.87
2018-11-11T20:03:01.697Z,6.73
2018-11-11T20:05:30.502Z,6.67
2018-11-11T20:08:00.852Z,5.63
2018-11-11T20:10:30.678Z,6.70
2018-11-11T20:13:00.863Z,6.87
2018-11-11T20:15:31.850Z,4.73
2018-11-11T20:18:00.342Z,5.20
2018-11-11T20:20:32.072Z,11.67
2018-11-11T20:23:01.814Z,6.90
2018-11-11T20:25:30.771Z,5.70
2018-11-11T20:28:00.379Z,6.43
2018-11-11T20:30:30.415Z,4.73
2018-11-11T20:32:59.191Z,5.50
2018-11-11T20:35:30.288Z,6.33
2018-11-11T20:38:00.288Z,5.47
2018-11-11T20:40:29.845Z,5.83
2018-11-11T20:42:59.353Z,6.87
2018-11-11T20:45:31.190Z,5.50
2018-11-11T20:48:00.401Z,4.53
2018-11-11T20:50:30.992Z,4.37
2018-11-11T20:53:02.110Z,6.77
2018-11-11T20:55:30.839Z,6.07
2018-11-11T20:57:59.923Z,5.87
2018-11-11T21:00:32.118Z,5.00
2018-11-11T21:03:00.631Z,4.53
2018-11-11T21:05:30.018Z,5.33
2018-11-11T21:07:58.869Z,4.57
2018-11-11T21:10:28.615Z,5.13
2018-11-11T21:12:58.593Z,4.73
2018-11-11T21:15:29.952Z,4.37
2018-11-11T21:17:58.490Z,5.50
2018-11-11T21:20:28.522Z,5.17
2018-11-11T21:22:57.681Z,5.53
2018-11-11T21:25:26.529Z,4.70
2018-11-11T21:27:55.145Z,5.57
2018-11-11T21:30:25.145Z,5.13
2018-11-11T21:32:54.724Z,6.43
2018-11-11T21:35:23.686Z,5.97
2018-11-11T21:37:52.955Z,4.87
2018-11-11T21:40:22.853Z,5.50
2018-11-11T21:42:52.025Z,5.77
2018-11-11T21:45:23.732Z,4.70
2018-11-11T21:47:53.667Z,5.73
2018-11-11T21:50:23.540Z,5.20
2018-11-11T21:53:56.317Z,5.62
2018-11-11T21:56:26.124Z,4.90
2018-11-11T21:58:54.975Z,5.60
2018-11-11T22:01:23.681Z,5.63
2018-11-11T22:03:52.653Z,6.17
2018-11-11T22:06:21.457Z,5.13
2018-11-11T22:08:50.318Z,5.73
2018-11-11T22:11:19.476Z,5.67
2018-11-11T22:13:49.057Z,6.27
2018-11-11T22:16:18.237Z,4.67
2018-11-11T22:18:46.996Z,5.37
2018-11-11T22:21:15.706Z,4.57
2018-11-11T22:23:44.318Z,4.87
2018-11-11T22:26:12.874Z,4.77
2018-11-11T22:28:41.491Z,4.13
2018-11-11T22:31:10.098Z,4.07
2018-11-11T22:33:39.090Z,5.70
2018-11-11T22:36:08.833Z,4.83
2018-11-11T22:38:38.896Z,4.10
2018-11-11T22:41:07.529Z,4.73
2018-11-11T22:43:36.636Z,4.20
2018-11-11T22:46:05.316Z,5.67
2018-11-11T22:48:34.002Z,3.97
2018-11-11T22:51:03.151Z,4.63
2018-11-11T22:53:32.111Z,4.00
2018-11-11T22:56:02.757Z,3.90
2018-11-11T22:58:31.427Z,4.47
2018-11-11T23:01:06.488Z,4.87
2018-11-11T23:03:40.978Z,4.07
2018-11-11T23:06:09.879Z,4.10
2018-11-11T23:08:40.000Z,5.07
2018-11-11T23:11:08.630Z,4.13
2018-11-11T23:13:37.466Z,4.83
2018-11-11T23:16:06.173Z,4.27
2018-11-11T23:18:34.858Z,4.00
2018-11-11T23:21:03.528Z,4.77
2018-11-11T23:23:32.006Z,3.57
2018-11-11T23:26:02.125Z,3.83
2018-11-11T23:28:30.916Z,3.93
2018-11-11T23:31:00.686Z,5.03
2018-11-11T23:33:29.392Z,3.80
2018-11-11T23:35:58.149Z,4.10
2018-11-11T23:38:26.749Z,4.23
2018-11-11T23:40:55.230Z,3.90
2018-11-11T23:43:24.926Z,5.10
2018-11-11T23:45:53.579Z,4.37
2018-11-11T23:48:22.376Z,4.20
2018-11-11T23:50:50.990Z,3.90
2018-11-11T23:53:20.175Z,4.33
2018-11-11T23:55:49.040Z,3.80
2018-11-11T23:58:17.597Z,3.90
